Time;durP1;ratioP1;P1;durP2;ratioP2;P2;SDS_P1;SDS_P2;PMS_P1;PMS_P2;Temp;Humidity;BMP_temperature;BMP_pressure;BME280_temperature;BME280_humidity;BME280_pressure;Samples;Min_cycle;Max_cycle;Signal;HPM_P1;HPM_P2
2022/07/20 00:01:25;;;;;;;5.60;2.20;;;;;;;;;;5171539;27;20091;-80
2022/07/20 00:04:09;;;;;;;10.90;3.60;;;;;;;;;;5170593;27;20045;-80
2022/07/20 00:06:55;;;;;;;16.58;14.90;;;;;;;;;;5170662;27;20087;-80
2022/07/20 00:12:43;;;;;;;7.57;3.00;;;;;;;;;;5156869;27;20049;-79
2022/07/20 00:15:28;;;;;;;6.97;3.28;;;;;;;;;;5171183;27;20435;-79
2022/07/20 00:18:12;;;;;;;5.30;2.22;;;;;;;;;;5154755;27;20046;-79
2022/07/20 00:20:57;;;;;;;8.38;2.45;;;;;;;;;;5170482;27;20079;-79
2022/07/20 00:23:42;;;;;;;6.40;2.60;;;;;;;;;;5170865;27;20508;-79
2022/07/20 00:26:26;;;;;;;6.85;2.40;;;;;;;;;;5155254;27;20510;-79
2022/07/20 00:29:11;;;;;;;9.20;2.45;;;;;;;;;;5154634;27;20427;-79
2022/07/20 00:31:55;;;;;;;6.05;3.08;;;;;;;;;;5170118;27;20061;-83
2022/07/20 00:34:40;;;;;;;5.40;3.03;;;;;;;;;;5170967;27;20033;-79
2022/07/20 00:37:24;;;;;;;8.23;2.85;;;;;;;;;;5156801;27;20446;-79
2022/07/20 00:40:10;;;;;;;11.63;4.10;;;;;;;;;;5170083;27;20033;-79
2022/07/20 00:42:54;;;;;;;7.15;3.10;;;;;;;;;;5155008;27;20558;-79
2022/07/20 00:45:39;;;;;;;6.70;3.05;;;;;;;;;;5156324;27;20114;-79
2022/07/20 00:48:23;;;;;;;6.75;2.60;;;;;;;;;;5140929;27;20087;-79
2022/07/20 00:51:08;;;;;;;20.77;7.25;;;;;;;;;;5126033;27;20103;-79
2022/07/20 00:53:53;;;;;;;9.00;3.17;;;;;;;;;;5156310;27;20123;-79
2022/07/20 14:17:42;;;;;;;9.05;4.40;;;;;;;;;;5123622;27;20334;-80
2022/07/20 14:20:28;;;;;;;5.97;4.15;;;;;;;;;;5122842;28;20112;-80
2022/07/20 14:23:13;;;;;;;6.38;4.38;;;;;;;;;;5138810;27;20083;-82
2022/07/20 14:25:58;;;;;;;8.23;5.07;;;;;;;;;;5123287;28;20084;-80
2022/07/20 14:28:42;;;;;;;7.85;4.78;;;;;;;;;;5122752;28;20077;-80
2022/07/20 14:31:27;;;;;;;9.05;4.85;;;;;;;;;;5114077;28;20065;-82
2022/07/20 14:34:11;;;;;;;10.77;5.40;;;;;;;;;;5104975;28;20139;-81
2022/07/20 14:36:56;;;;;;;9.27;5.00;;;;;;;;;;5104441;28;20066;-82
2022/07/20 14:39:41;;;;;;;9.10;5.25;;;;;;;;;;5105616;28;20061;-81
2022/07/20 14:42:27;;;;;;;10.70;5.55;;;;;;;;;;5102852;28;20035;-81
2022/07/20 14:45:12;;;;;;;8.15;4.70;;;;;;;;;;5104721;28;20371;-80
2022/07/20 14:47:57;;;;;;;9.15;4.53;;;;;;;;;;5105971;28;20035;-82
2022/07/20 14:50:41;;;;;;;6.97;4.45;;;;;;;;;;5110504;28;20027;-82
2022/07/20 14:53:26;;;;;;;7.53;4.72;;;;;;;;;;5115065;28;20054;-81
2022/07/20 14:56:11;;;;;;;7.75;4.32;;;;;;;;;;5117945;28;20434;-82
2022/07/20 14:58:55;;;;;;;7.32;4.32;;;;;;;;;;5109393;28;20085;-82
2022/07/20 15:01:40;;;;;;;9.00;4.72;;;;;;;;;;5124106;27;20035;-82
2022/07/20 15:04:25;;;;;;;9.30;4.80;;;;;;;;;;5110192;28;20063;-82
2022/07/20 15:07:10;;;;;;;6.68;4.45;;;;;;;;;;5136384;27;20079;-82
2022/07/20 15:09:54;;;;;;;6.45;4.22;;;;;;;;;;5129445;28;20043;-82
2022/07/20 15:12:39;;;;;;;8.45;4.50;;;;;;;;;;5128722;28;20092;-82
2022/07/20 15:15:33;;;;;;;8.93;4.85;;;;;;;;;;5128432;27;20084;-82
2022/07/20 15:18:18;;;;;;;6.07;4.20;;;;;;;;;;5128232;28;20034;-83
2022/07/20 15:21:03;;;;;;;7.38;4.47;;;;;;;;;;5128229;27;20038;-82
2022/07/20 15:23:47;;;;;;;7.80;4.78;;;;;;;;;;5128483;28;20083;-81
2022/07/20 15:26:33;;;;;;;8.77;4.43;;;;;;;;;;5127211;27;20039;-80
2022/07/20 15:29:20;;;;;;;7.40;4.60;;;;;;;;;;5103702;28;20038;-81
2022/07/20 15:32:23;;;;;;;7.20;4.93;;;;;;;;;;5105136;28;20080;-81
2022/07/20 15:35:08;;;;;;;10.15;5.15;;;;;;;;;;5093699;28;20035;-80
2022/07/20 15:37:54;;;;;;;9.45;5.43;;;;;;;;;;5095143;28;20039;-81
2022/07/20 15:40:39;;;;;;;10.00;4.95;;;;;;;;;;5091173;28;20169;-82
2022/07/20 15:43:23;;;;;;;7.70;4.97;;;;;;;;;;5094383;28;20027;-84
2022/07/20 15:46:25;;;;;;;12.10;5.30;;;30.80;56.50;;;;;;5094893;28;20407;-82
2022/07/20 15:49:12;;;;;;;8.95;5.50;;;;;;;;;;5090581;28;20030;-81
2022/07/20 15:51:57;;;;;;;10.25;5.63;;;;;;;;;;5094452;28;20166;-82
2022/07/20 15:54:43;;;;;;;7.53;4.57;;;;;;;;;;5094038;28;20528;-82
2022/07/20 15:57:28;;;;;;;11.82;5.35;;;;;;;;;;5092681;28;20039;-85
2022/07/20 16:00:12;;;;;;;9.98;5.55;;;;;;;;;;5094109;28;20451;-82
2022/07/20 16:02:57;;;;;;;9.40;5.47;;;;;;;;;;5094323;28;20115;-81
2022/07/20 16:05:42;;;;;;;10.45;6.40;;;;;;;;;;5094422;28;20031;-83
2022/07/20 16:08:27;;;;;;;9.52;5.35;;;;;;;;;;5111120;28;20046;-84
2022/07/20 16:11:13;;;;;;;8.82;4.97;;;;;;;;;;5108610;28;20034;-82
2022/07/20 16:13:58;;;;;;;8.57;5.20;;;;;;;;;;5098330;28;20237;-84
2022/07/20 16:16:42;;;;;;;8.52;5.28;;;;;;;;;;5107360;28;20049;-80
2022/07/20 16:19:27;;;;;;;9.18;4.50;;;;;;;;;;5108964;28;20035;-81
2022/07/20 16:22:13;;;;;;;7.10;5.10;;;;;;;;;;5107802;28;20027;-80
2022/07/20 16:24:58;;;;;;;8.73;4.22;;;;;;;;;;5110089;28;20031;-81
2022/07/20 16:27:43;;;;;;;9.27;4.40;;;;;;;;;;5100855;28;20035;-80
2022/07/20 16:30:28;;;;;;;8.68;4.30;;;;;;;;;;5094831;28;20560;-80
2022/07/20 16:33:14;;;;;;;8.85;4.82;;;;;;;;;;5111311;28;20035;-82
2022/07/20 16:35:59;;;;;;;7.18;4.38;;;;;;;;;;5075809;28;20038;-81
2022/07/20 16:38:43;;;;;;;9.07;4.50;;;;;;;;;;5092633;28;20031;-81
2022/07/20 16:41:30;;;;;;;9.02;4.60;;;;;;;;;;5085158;28;20529;-81
2022/07/20 16:44:22;;;;;;;9.32;4.68;;;;;;;;;;5120985;27;20039;-81
2022/07/20 16:47:06;;;;;;;11.02;5.18;;;;;;;;;;5092355;28;20364;-81
2022/07/20 16:49:52;;;;;;;16.02;5.68;;;;;;;;;;5120258;27;20035;-81
2022/07/20 16:52:36;;;;;;;15.25;5.45;;;;;;;;;;5092873;28;20054;-83
2022/07/20 16:55:22;;;;;;;8.77;5.78;;;;;;;;;;5114960;27;20031;-82
2022/07/20 16:58:08;;;;;;;11.32;5.93;;;;;;;;;;5098475;28;20047;-81
2022/07/20 17:00:54;;;;;;;10.50;5.88;;;;;;;;;;5091523;28;20107;-80
2022/07/20 17:03:40;;;;;;;10.07;5.47;;;;;;;;;;5092595;28;20039;-80
2022/07/20 17:06:25;;;;;;;13.07;5.80;;;;;;;;;;5092282;28;20035;-80
2022/07/20 17:09:09;;;;;;;11.93;6.00;;;;;;;;;;5116488;27;20039;-80
2022/07/20 17:11:53;;;;;;;12.20;5.72;;;;;;;;;;5091380;28;20145;-80
2022/07/20 17:14:38;;;;;;;9.57;5.30;;;;;;;;;;5106039;28;20391;-82
2022/07/20 17:17:22;;;;;;;11.00;5.38;;;;;;;;;;5091445;28;20125;-80
2022/07/20 17:20:07;;;;;;;11.50;6.28;;;;;;;;;;5093140;28;20481;-81
2022/07/20 17:22:52;;;;;;;16.38;6.35;;;;;;;;;;5101656;28;20034;-81
2022/07/20 17:25:38;;;;;;;11.27;5.90;;;;;;;;;;5100140;28;20043;-82
2022/07/20 17:28:23;;;;;;;12.40;5.35;;;;;;;;;;5111328;28;20066;-82
2022/07/20 17:31:08;;;;;;;13.30;5.28;;;;;;;;;;5113163;28;20375;-81
2022/07/20 17:33:52;;;;;;;8.60;4.95;;;;;;;;;;5112271;28;20120;-82
2022/07/20 17:36:37;;;;;;;8.75;5.22;;;;;;;;;;5112074;28;20043;-82
2022/07/20 17:39:22;;;;;;;15.23;4.85;;;;;;;;;;5111859;28;20115;-81
2022/07/20 17:42:06;;;;;;;11.23;4.57;;;;;;;;;;5111527;28;20027;-81
2022/07/20 17:44:51;;;;;;;9.77;4.88;;;;;;;;;;5112407;28;20149;-82
2022/07/20 17:47:36;;;;;;;8.25;4.60;;;;;;;;;;5112998;28;20134;-81
2022/07/20 17:50:20;;;;;;;9.50;4.50;;;;;;;;;;5112781;28;20486;-81
2022/07/20 17:53:05;;;;;;;9.68;4.43;;;;;;;;;;5112087;28;20038;-81
2022/07/20 17:55:49;;;;;;;9.73;4.43;;;;;;;;;;5096391;28;20418;-82
2022/07/20 17:58:34;;;;;;;5.93;3.70;;;;;;;;;;5112840;28;20084;-80
2022/07/20 18:01:18;;;;;;;8.43;4.43;;;;;;;;;;5109727;28;20026;-82
2022/07/20 18:04:03;;;;;;;9.50;4.00;;;;;;;;;;5109057;28;20039;-82
2022/07/20 18:06:48;;;;;;;8.05;3.80;;;;;;;;;;5107597;28;20084;-84
2022/07/20 18:09:33;;;;;;;8.73;3.97;;;;;;;;;;5108333;28;20057;-81
2022/07/20 18:12:17;;;;;;;6.57;3.60;;;;;;;;;;5109289;28;20070;-82
2022/07/20 18:15:02;;;;;;;10.00;4.32;;;;;;;;;;5107762;28;20034;-81
2022/07/20 18:17:46;;;;;;;9.63;4.00;;;;;;;;;;5109569;28;20136;-81
2022/07/20 18:20:33;;;;;;;6.75;3.85;;;;;;;;;;5076484;28;20047;-82
2022/07/20 18:23:18;;;;;;;10.85;4.28;;;;;;;;;;5105336;28;20083;-81
2022/07/20 18:26:02;;;;;;;8.05;4.10;;;;;;;;;;5108904;28;20038;-83
2022/07/20 18:28:47;;;;;;;7.90;4.88;;;;;;;;;;5093006;28;20031;-81
2022/07/20 18:31:32;;;;;;;9.38;3.70;;;;;;;;;;5093376;28;20051;-81
2022/07/20 18:34:16;;;;;;;8.38;3.75;;;;;;;;;;5105992;28;20161;-80
2022/07/20 18:37:01;;;;;;;8.75;3.55;;;;;;;;;;5095373;28;20043;-82
2022/07/20 18:39:46;;;;;;;13.02;4.20;;;;;;;;;;5119621;28;20097;-82
2022/07/20 18:42:30;;;;;;;8.10;3.83;;;;;;;;;;5091840;28;20382;-82
2022/07/20 18:45:15;;;;;;;9.20;3.28;;;;;;;;;;5091431;28;20050;-83
2022/07/20 18:47:59;;;;;;;9.43;3.60;;;;;;;;;;5091468;28;20085;-82
2022/07/20 18:50:47;;;;;;;5.78;3.13;;;;;;;;;;5087710;28;20074;-82
2022/07/20 18:53:32;;;;;;;11.52;4.70;;;;;;;;;;5098126;28;20046;-86
2022/07/20 18:56:16;;;;;;;7.75;3.40;;;;;;;;;;5086956;28;20043;-82
2022/07/20 18:59:01;;;;;;;7.82;3.63;;;;;;;;;;5089229;28;20103;-83
2022/07/20 19:01:46;;;;;;;8.70;3.08;;;;;;;;;;5083361;28;20082;-83
2022/07/20 19:04:34;;;;;;;6.95;2.90;;;;;;;;;;5109411;28;20044;-83
2022/07/20 19:07:19;;;;;;;5.75;3.20;;;;;;;;;;5099348;28;20490;-83
2022/07/20 19:10:03;;;;;;;7.10;3.25;;;;;;;;;;5106828;28;20031;-83
2022/07/20 19:12:48;;;;;;;10.13;3.80;;;;;;;;;;5103681;28;20149;-83
2022/07/20 19:15:32;;;;;;;8.25;3.13;;;;;;;;;;5118832;27;20055;-82
2022/07/20 19:18:17;;;;;;;11.38;3.55;;;;;;;;;;5093340;28;20110;-83
2022/07/20 19:21:02;;;;;;;9.38;3.42;;;;;;;;;;5102058;28;20089;-82
2022/07/20 19:23:46;;;;;;;8.40;2.88;;;;;;;;;;5112587;28;20038;-83
2022/07/20 19:26:31;;;;;;;7.65;3.47;;;;;;;;;;5107663;28;20489;-82
2022/07/20 19:29:16;;;;;;;7.60;3.42;;;;;;;;;;5104050;28;20272;-81
2022/07/20 19:32:00;;;;;;;8.13;3.30;;;;;;;;;;5098337;28;20157;-83
2022/07/20 19:34:45;;;;;;;10.02;3.63;;;;;;;;;;5104123;28;20045;-82
2022/07/20 19:37:29;;;;;;;11.00;3.78;;;;;;;;;;5109405;28;20030;-82
2022/07/20 19:40:15;;;;;;;11.10;3.28;;;;;;;;;;5099337;28;20392;-80
2022/07/20 19:42:59;;;;;;;9.40;3.83;;;;;;;;;;5092736;28;20119;-84
2022/07/20 19:45:44;;;;;;;6.97;3.13;;;;;;;;;;5086614;28;20036;-80
2022/07/20 19:48:29;;;;;;;10.88;3.78;;;;;;;;;;5089519;28;20112;-80
2022/07/20 19:51:13;;;;;;;9.88;3.67;;;;;;;;;;5091736;28;20031;-81
2022/07/20 19:53:58;;;;;;;10.60;3.20;;;;;;;;;;5078560;28;20034;-81
2022/07/20 19:56:43;;;;;;;10.07;3.53;;;;;;;;;;5094048;28;20039;-80
2022/07/20 19:59:30;;;;;;;8.80;2.80;;;;;;;;;;5090836;28;20054;-80
2022/07/20 20:02:14;;;;;;;7.45;3.30;;;;;;;;;;5120610;27;21414;-80
2022/07/20 20:04:59;;;;;;;8.40;3.30;;;;;;;;;;5093950;28;20046;-81
2022/07/20 20:07:44;;;;;;;8.60;3.10;;;;;;;;;;5106178;28;20124;-82
2022/07/20 20:10:28;;;;;;;9.75;3.45;;;;;;;;;;5107771;28;20728;-83
2022/07/20 20:13:13;;;;;;;10.48;3.28;;;;;;;;;;5109690;28;20103;-81
2022/07/20 20:15:58;;;;;;;10.82;4.05;;;;;;;;;;5103872;28;20058;-82
2022/07/20 20:18:44;;;;;;;9.02;3.67;;;;;;;;;;5094039;28;20173;-85
2022/07/20 20:21:29;;;;;;;11.75;3.70;;;;;;;;;;5101698;28;20100;-82
2022/07/20 20:24:13;;;;;;;10.75;3.40;;;;;;;;;;5110184;28;20039;-82
2022/07/20 20:26:58;;;;;;;10.15;3.50;;;;;;;;;;5107202;28;20071;-82
2022/07/20 20:29:42;;;;;;;9.95;3.45;;;;;;;;;;5113147;28;20089;-82
2022/07/20 20:32:26;;;;;;;8.32;3.58;;;;;;;;;;5104467;28;20085;-82
2022/07/20 20:35:11;;;;;;;8.98;4.00;;;;;;;;;;5109245;28;20080;-85
2022/07/20 20:37:56;;;;;;;9.95;3.75;;;;;;;;;;5109052;28;20432;-80
2022/07/20 20:40:40;;;;;;;13.35;3.47;;;;;;;;;;5108779;28;20082;-81
2022/07/20 20:43:25;;;;;;;7.18;3.38;;;;;;;;;;5099611;28;20027;-80
2022/07/20 20:46:10;;;;;;;7.85;3.50;;;;;;;;;;5093916;28;20154;-81
2022/07/20 20:48:55;;;;;;;9.40;3.70;;;;;;;;;;5106786;28;20502;-81
2022/07/20 20:51:39;;;;;;;8.77;3.40;;;;;;;;;;5084000;28;20415;-82
2022/07/20 20:54:24;;;;;;;8.88;3.80;;;;;;;;;;5097334;28;20062;-82
2022/07/20 20:57:08;;;;;;;9.93;3.90;;;;;;;;;;5091475;28;20038;-84
2022/07/20 20:59:53;;;;;;;10.68;4.00;;;;;;;;;;5093439;28;20149;-81
2022/07/20 21:02:37;;;;;;;12.80;3.90;;;;;;;;;;5094808;28;20383;-81
2022/07/20 21:05:22;;;;;;;8.57;3.88;;;;;;;;;;5112163;28;20524;-83
2022/07/20 21:08:07;;;;;;;12.13;4.53;;;;;;;;;;5113529;28;20084;-81
2022/07/20 21:10:52;;;;;;;10.43;3.80;;;;;;;;;;5112240;28;20080;-82
2022/07/20 21:13:37;;;;;;;12.63;4.78;;;;;;;;;;5113482;28;20093;-81
2022/07/20 21:16:22;;;;;;;8.75;4.15;;;;;;;;;;5111790;28;20058;-81
2022/07/20 21:19:06;;;;;;;10.50;4.25;;;;;;;;;;5112017;28;20462;-81
2022/07/20 21:21:50;;;;;;;9.07;3.75;;;;;;;;;;5113493;28;20066;-81
2022/07/20 21:24:35;;;;;;;11.00;4.07;;;;;;;;;;5112616;28;20034;-81
2022/07/20 21:27:20;;;;;;;9.00;3.75;;;;;;;;;;5106125;28;20098;-82
2022/07/20 21:30:05;;;;;;;9.35;4.13;;;;;;;;;;5106282;28;20449;-81
2022/07/20 21:32:49;;;;;;;7.95;3.92;;;;;;;;;;5120978;27;20399;-82
2022/07/20 21:35:34;;;;;;;10.05;4.45;;;;;;;;;;5092098;28;20038;-81
2022/07/20 21:38:19;;;;;;;10.98;4.00;;;;;;;;;;5092345;28;20070;-81
2022/07/20 21:41:03;;;;;;;11.40;3.20;;;;;;;;;;5106224;27;20031;-81
2022/07/20 21:43:47;;;;;;;10.23;4.15;;;;;;;;;;5091635;28;20445;-82
2022/07/20 21:46:32;;;;;;;7.60;3.83;;;;;;;;;;5092072;28;20038;-81
2022/07/20 21:49:17;;;;;;;12.07;3.90;;;;;;;;;;5119824;27;20027;-84
2022/07/20 21:52:01;;;;;;;6.47;3.67;;;;;;;;;;5100339;28;20490;-81
2022/07/20 21:54:46;;;;;;;7.95;3.63;;;;;;;;;;5097385;28;20035;-81
2022/07/20 21:57:30;;;;;;;8.90;3.90;;;;;;;;;;5111969;28;20073;-82
2022/07/20 22:00:15;;;;;;;10.10;3.90;;;;;;;;;;5111911;28;20517;-81
2022/07/20 22:03:00;;;;;;;11.52;3.95;;;;;;;;;;5111818;28;20081;-81
2022/07/20 22:05:44;;;;;;;11.43;4.55;;;;;;;;;;5112698;28;20038;-81
2022/07/20 22:08:29;;;;;;;10.32;4.60;;;;;;;;;;5112244;28;20031;-81
2022/07/20 22:11:13;;;;;;;7.07;3.72;;;;;;;;;;5111458;28;20180;-81
2022/07/20 22:13:58;;;;;;;10.27;4.50;;;;;;;;;;5111534;28;20031;-82
2022/07/20 22:16:43;;;;;;;8.30;3.92;;;;;;;;;;5111968;28;20410;-81
2022/07/20 22:19:28;;;;;;;8.95;3.75;;;;;;;;;;5111939;28;20053;-81
2022/07/20 22:22:13;;;;;;;8.65;4.03;;;;;;;;;;5112626;28;20088;-81
2022/07/20 22:24:57;;;;;;;9.60;4.07;;;;;;;;;;5111767;28;20478;-81
2022/07/20 22:27:44;;;;;;;11.25;5.00;;;;;;;;;;5082369;28;20047;-81
2022/07/20 22:30:29;;;;;;;10.43;4.13;;;;;;;;;;5088680;28;20032;-81
2022/07/20 22:33:13;;;;;;;12.48;4.10;;;;;;;;;;5105786;28;20035;-81
2022/07/20 22:35:58;;;;;;;10.00;4.18;;;;;;;;;;5120007;28;20150;-82
2022/07/20 22:38:43;;;;;;;9.30;4.10;;;;;;;;;;5094083;28;20336;-81
2022/07/20 22:41:27;;;;;;;14.57;5.05;;;;;;;;;;5095694;28;20085;-82
2022/07/20 22:44:12;;;;;;;8.43;4.40;;;;;;;;;;5096067;28;20107;-81
2022/07/20 22:46:56;;;;;;;10.35;4.35;;;;;;;;;;5095869;28;20566;-81
2022/07/20 22:49:41;;;;;;;10.57;4.82;;;;;;;;;;5095343;28;20039;-81
2022/07/20 22:52:26;;;;;;;10.23;4.72;;;;;;;;;;5095300;28;20483;-83
2022/07/20 22:55:10;;;;;;;6.82;4.60;;;;;;;;;;5095753;28;20157;-81
2022/07/20 22:57:55;;;;;;;10.63;4.40;;;;;;;;;;5094493;28;20035;-81
2022/07/20 23:00:40;;;;;;;8.43;4.35;;;;;;;;;;5095263;28;20042;-81
2022/07/20 23:03:24;;;;;;;9.88;4.25;;;;;;;;;;5095510;28;20033;-84
2022/07/20 23:06:10;;;;;;;9.55;4.50;;;;;;;;;;5109945;28;20383;-82
2022/07/20 23:08:54;;;;;;;9.32;4.82;;;;;;;;;;5115087;28;20387;-82
2022/07/20 23:11:39;;;;;;;8.40;4.60;;;;;;;;;;5115470;28;20152;-82
2022/07/20 23:14:23;;;;;;;9.60;4.45;;;;;;;;;;5114723;28;20236;-81
2022/07/20 23:17:08;;;;;;;10.60;4.88;;;;;;;;;;5115909;28;20055;-81
2022/07/20 23:19:53;;;;;;;13.07;5.10;;;;;;;;;;5115694;28;20085;-82
2022/07/20 23:22:38;;;;;;;8.65;4.60;;;;;;;;;;5114981;28;20038;-81
2022/07/20 23:25:23;;;;;;;12.13;5.40;;;;;;;;;;5115832;28;20077;-81
2022/07/20 23:28:07;;;;;;;13.15;5.28;;;;;;;;;;5103493;28;20035;-82
2022/07/20 23:30:52;;;;;;;11.40;5.07;;;;;;;;;;5094833;28;20038;-82
2022/07/20 23:33:36;;;;;;;12.73;5.05;;;;;;;;;;5094552;28;20161;-82
2022/07/20 23:36:21;;;;;;;11.23;5.60;;;;;;;;;;5095173;28;20490;-81
2022/07/20 23:39:05;;;;;;;11.57;5.43;;;;;;;;;;5111914;28;20903;-82
2022/07/20 23:41:50;;;;;;;11.18;6.10;;;;;;;;;;5114741;28;20046;-82
2022/07/20 23:44:34;;;;;;;10.77;5.22;;;;;;;;;;5114809;28;20084;-82
2022/07/20 23:47:19;;;;;;;8.80;5.53;;;;;;;;;;5115056;28;20045;-81
2022/07/20 23:50:04;;;;;;;10.85;5.68;;;;;;;;;;5114553;28;20161;-82
2022/07/20 23:52:49;;;;;;;10.18;5.57;;;;;;;;;;5113709;28;20379;-81
2022/07/20 23:55:34;;;;;;;13.82;5.50;;;;;;;;;;5114331;28;20031;-83
2022/07/20 23:58:18;;;;;;;13.00;5.95;;;;;;;;;;5113925;28;20027;-81
